Darstellungsparameter: Aktuell verwendete Einstellungen:
Skalierung der Graphiken ... ?
xyx+y,   Skalierungsfaktor:      Skalierung: Modus: x, Faktor: 1
Darstellungszeitraum ... ?
Vom - - bis: - -   Zeitraum: 28.01.2021 - 28.01.2021
Min/Max/Avg-Anzeige ... ?
Zeige MMA aktuell
Zeige MMA Monat
Zeige MMA alles
Zeige --A aktuell
Zeige --A Monat
Zeige --A alles
Keine MMA-Anzeige
MMA:
Average (ber die Originaldaten)
MMA-Basis: 28.01.2021 - 28.01.2021
Quicknavigation für Darstellung... ?
Tage:      1T, 2T, 3T, 5T -1T -2T -3T -5T +1T +2T +3T +5T
Wochen: 1W, 2W, 3W -1W -2W -3W +1W +2W +3W
Monate: 1M, 3M, 6M -1M -3M -6M +1M +3M +6M
Jahre:    1J, 3J, 5J, 10J -1J -3J -5J -10J +1J +3J +5J +10J
Nutze für die Darstellung ... ?
Originaldaten oder Mittelwerte auf ...
Stundenbasis Tagesbasis Wochenbasis
Monatsbasis Jahresbasis      Datenbasis: Original-Daten
Darstellen als:
Statistik (Auto) Statistik J:M      Darstellung:

Der gewünschte Datumsbereich war nicht gültig/verfügbar und wurde korrigiert....
Das angegebene Enddatum (29.03.2021 23:59:59) liegt in der Zukunft.
Das angegebene Startdatum (02.03.2021 00:00:00) liegt in der Zukunft.


Zur Graphik,    zurück zur Übersicht aller Sensoren.
 
Tabellarische Datenbersicht: ?
 
Sensor: Nr:Datum:Temp:Abs-Feuchte:Windchill:Wind:
Aussen-T/F 1 28-01-2021 01:00:00 4 C 5.98 g/m*3 0.6 C 14.5 km/h
2 28-01-2021 01:05:00 4 C 5.98 g/m*3 1.18 C 11.3 km/h
3 28-01-2021 01:10:00 4.1 C 6.02 g/m*3 0.47 C 16.1 km/h
4 28-01-2021 01:15:00 4.1 C 6.02 g/m*3 0.47 C 16.1 km/h
5 28-01-2021 01:20:00 4.1 C 6.02 g/m*3 1.65 C 9.7 km/h
6 28-01-2021 01:25:00 4.1 C 6.02 g/m*3 1.31 C 11.3 km/h
7 28-01-2021 01:30:00 4.1 C 6.02 g/m*3 2.55 C 6.4 km/h
8 28-01-2021 01:35:00 4.1 C 6.02 g/m*3 1 C 12.9 km/h
9 28-01-2021 01:40:00 4.2 C 6.06 g/m*3 1.77 C 9.7 km/h
10 28-01-2021 01:45:00 4.2 C 6.06 g/m*3 1.43 C 11.3 km/h
11 28-01-2021 01:50:00 4.2 C 6.06 g/m*3 1.43 C 11.3 km/h
12 28-01-2021 01:55:00 4.2 C 6.06 g/m*3 1.43 C 11.3 km/h
13 28-01-2021 02:00:00 4.2 C 6.06 g/m*3 1.43 C 11.3 km/h
14 28-01-2021 02:05:00 4.3 C 6.1 g/m*3 1.24 C 12.9 km/h
15 28-01-2021 02:10:00 4.3 C 6.1 g/m*3 1.24 C 12.9 km/h
16 28-01-2021 02:15:00 4.3 C 6.1 g/m*3 1.89 C 9.7 km/h
17 28-01-2021 02:20:00 4.3 C 6.1 g/m*3 2.78 C 6.4 km/h
18 28-01-2021 02:25:00 4.4 C 6.14 g/m*3 1.36 C 12.9 km/h
19 28-01-2021 02:30:00 4.4 C 6.14 g/m*3 4.4 C 3.2 km/h
20 28-01-2021 02:35:00 4.4 C 6.14 g/m*3 4.4 C 4.8 km/h
21 28-01-2021 02:40:00 4.4 C 6.14 g/m*3 4.4 C 1.6 km/h
22 28-01-2021 02:45:00 4.4 C 6.14 g/m*3 4.4 C 3.2 km/h
23 28-01-2021 02:50:00 4.4 C 6.14 g/m*3 2.9 C 6.4 km/h
24 28-01-2021 02:55:00 4.4 C 6.14 g/m*3 2.9 C 6.4 km/h
25 28-01-2021 03:00:00 4.6 C 6.29 g/m*3 1.61 C 12.9 km/h
Sensor: Nr:Datum:Temp:Abs-Feuchte:Windchill:Wind:
Aussen-T/F 26 28-01-2021 03:05:00 4.6 C 6.22 g/m*3 2.64 C 8.1 km/h
27 28-01-2021 03:10:00 4.6 C 6.22 g/m*3 1.91 C 11.3 km/h
28 28-01-2021 03:15:00 4.7 C 6.26 g/m*3 1.73 C 12.9 km/h
29 28-01-2021 03:20:00 4.7 C 6.26 g/m*3 2.03 C 11.3 km/h
30 28-01-2021 03:25:00 4.7 C 6.26 g/m*3 2.76 C 8.1 km/h
31 28-01-2021 03:30:00 4.7 C 6.26 g/m*3 2.76 C 8.1 km/h
32 28-01-2021 03:35:00 4.7 C 6.26 g/m*3 2.76 C 8.1 km/h
33 28-01-2021 03:40:00 4.7 C 6.26 g/m*3 3.25 C 6.4 km/h
34 28-01-2021 03:45:00 4.7 C 6.26 g/m*3 3.25 C 6.4 km/h
35 28-01-2021 03:50:00 4.7 C 6.26 g/m*3 4.7 C 4.8 km/h
36 28-01-2021 03:55:00 4.6 C 6.22 g/m*3 4.6 C 1.6 km/h
37 28-01-2021 04:00:00 4.6 C 6.29 g/m*3 3.13 C 6.4 km/h
38 28-01-2021 04:05:00 4.6 C 6.29 g/m*3 4.6 C 3.2 km/h
39 28-01-2021 04:10:00 4.6 C 6.29 g/m*3 4.6 C 1.6 km/h
40 28-01-2021 04:15:00 4.6 C 6.29 g/m*3 4.6 C 4.8 km/h
41 28-01-2021 04:20:00 4.6 C 6.29 g/m*3 4.6 C 1.6 km/h
42 28-01-2021 04:25:00 4.6 C 6.29 g/m*3 3.13 C 6.4 km/h
43 28-01-2021 04:30:00 4.6 C 6.29 g/m*3 4.6 C 1.6 km/h
44 28-01-2021 04:35:00 4.6 C 6.29 g/m*3 4.6 C 3.2 km/h
45 28-01-2021 04:40:00 4.5 C 6.24 g/m*3 4.5 C 0 km/h
46 28-01-2021 04:45:00 4.5 C 6.24 g/m*3 4.5 C 0 km/h
47 28-01-2021 04:50:00 4.5 C 6.24 g/m*3 4.5 C 0 km/h
48 28-01-2021 04:55:00 4.5 C 6.24 g/m*3 4.5 C 0 km/h
49 28-01-2021 05:00:00 4.5 C 6.24 g/m*3 4.5 C 0 km/h
50 28-01-2021 05:05:00 4.5 C 6.24 g/m*3 4.5 C 0 km/h
Sensor: Nr:Datum:Temp:Abs-Feuchte:Windchill:Wind:
Aussen-T/F 51 28-01-2021 05:10:00 4.5 C 6.24 g/m*3 4.5 C 0 km/h
52 28-01-2021 05:15:00 4.5 C 6.24 g/m*3 4.5 C 0 km/h
53 28-01-2021 05:20:00 4.5 C 6.24 g/m*3 4.5 C 0 km/h
54 28-01-2021 05:25:00 4.6 C 6.29 g/m*3 4.6 C 0 km/h
55 28-01-2021 05:30:00 4.5 C 6.24 g/m*3 4.5 C 0 km/h
56 28-01-2021 05:35:00 4.5 C 6.24 g/m*3 4.5 C 0 km/h
57 28-01-2021 05:40:00 4.5 C 6.24 g/m*3 4.5 C 0 km/h
58 28-01-2021 05:45:00 4.5 C 6.24 g/m*3 4.5 C 0 km/h
59 28-01-2021 05:50:00 4.5 C 6.24 g/m*3 4.5 C 0 km/h
60 28-01-2021 05:55:00 4.4 C 6.2 g/m*3 4.4 C 0 km/h
61 28-01-2021 06:00:00 4.4 C 6.2 g/m*3 4.4 C 0 km/h
62 28-01-2021 06:05:00 4.4 C 6.2 g/m*3 4.4 C 0 km/h
63 28-01-2021 06:10:00 4.4 C 6.27 g/m*3 4.4 C 0 km/h
64 28-01-2021 06:15:00 4.4 C 6.27 g/m*3 4.4 C 0 km/h
65 28-01-2021 06:20:00 4.4 C 6.27 g/m*3 4.4 C 0 km/h
66 28-01-2021 06:25:00 4.4 C 6.27 g/m*3 4.4 C 0 km/h
67 28-01-2021 06:30:00 4.4 C 6.27 g/m*3 4.4 C 0 km/h
68 28-01-2021 06:35:00 4.4 C 6.2 g/m*3 4.4 C 0 km/h
69 28-01-2021 06:40:00 4.4 C 6.2 g/m*3 4.4 C 0 km/h
70 28-01-2021 06:45:00 4.4 C 6.2 g/m*3 4.4 C 0 km/h
71 28-01-2021 06:50:00 4.4 C 6.27 g/m*3 4.4 C 0 km/h
72 28-01-2021 06:55:00 4.4 C 6.27 g/m*3 4.4 C 0 km/h
73 28-01-2021 07:00:00 4.3 C 6.23 g/m*3 4.3 C 0 km/h
74 28-01-2021 07:05:00 4.3 C 6.23 g/m*3 4.3 C 0 km/h
75 28-01-2021 07:10:00 4.3 C 6.23 g/m*3 4.3 C 0 km/h
Sensor: Nr:Datum:Temp:Abs-Feuchte:Windchill:Wind:
Aussen-T/F 76 28-01-2021 07:15:00 4.3 C 6.23 g/m*3 4.3 C 0 km/h
77 28-01-2021 07:20:00 4.3 C 6.23 g/m*3 4.3 C 0 km/h
78 28-01-2021 07:25:00 4.3 C 6.23 g/m*3 4.3 C 0 km/h
79 28-01-2021 07:30:00 4.3 C 6.23 g/m*3 4.3 C 0 km/h
80 28-01-2021 07:35:00 4.3 C 6.23 g/m*3 4.3 C 0 km/h
81 28-01-2021 07:40:00 4.3 C 6.23 g/m*3 4.3 C 0 km/h
82 28-01-2021 07:45:00 4.3 C 6.23 g/m*3 4.3 C 0 km/h
83 28-01-2021 07:50:00 4.3 C 6.23 g/m*3 4.3 C 0 km/h
84 28-01-2021 07:55:00 4.3 C 6.23 g/m*3 4.3 C 0 km/h
85 28-01-2021 08:00:00 4.2 C 6.19 g/m*3 4.2 C 0 km/h
86 28-01-2021 08:05:00 4.2 C 6.19 g/m*3 4.2 C 0 km/h
87 28-01-2021 08:10:00 4.2 C 6.19 g/m*3 4.2 C 0 km/h
88 28-01-2021 08:15:00 4.2 C 6.19 g/m*3 4.2 C 0 km/h
89 28-01-2021 08:20:00 4.2 C 6.19 g/m*3 4.2 C 0 km/h
90 28-01-2021 08:25:00 4.2 C 6.19 g/m*3 4.2 C 0 km/h
91 28-01-2021 08:30:00 4.2 C 6.19 g/m*3 4.2 C 0 km/h
92 28-01-2021 08:35:00 4.2 C 6.19 g/m*3 4.2 C 0 km/h
93 28-01-2021 08:40:00 4.2 C 6.19 g/m*3 4.2 C 0 km/h
94 28-01-2021 08:45:00 4.2 C 6.19 g/m*3 4.2 C 0 km/h
95 28-01-2021 08:50:00 4.2 C 6.19 g/m*3 4.2 C 0 km/h
96 28-01-2021 08:55:00 4.2 C 6.19 g/m*3 4.2 C 0 km/h
97 28-01-2021 09:00:00 4.3 C 6.23 g/m*3 4.3 C 0 km/h
98 28-01-2021 09:05:00 4.3 C 6.23 g/m*3 4.3 C 0 km/h
99 28-01-2021 09:10:00 4.3 C 6.23 g/m*3 4.3 C 0 km/h
100 28-01-2021 09:15:00 4.3 C 6.23 g/m*3 4.3 C 0 km/h
Sensor: Nr:Datum:Temp:Abs-Feuchte:Windchill:Wind:
Aussen-T/F 101 28-01-2021 09:20:00 4.3 C 6.23 g/m*3 4.3 C 0 km/h
102 28-01-2021 09:25:00 4.3 C 6.23 g/m*3 4.3 C 0 km/h
103 28-01-2021 09:30:00 4.3 C 6.23 g/m*3 4.3 C 0 km/h
104 28-01-2021 09:35:00 4.3 C 6.23 g/m*3 4.3 C 0 km/h
105 28-01-2021 09:40:00 4.4 C 6.27 g/m*3 4.4 C 0 km/h
106 28-01-2021 09:45:00 4.4 C 6.27 g/m*3 4.4 C 0 km/h
107 28-01-2021 09:50:00 4.4 C 6.27 g/m*3 4.4 C 0 km/h
108 28-01-2021 09:55:00 4.4 C 6.27 g/m*3 4.4 C 0 km/h
109 28-01-2021 10:00:00 4.4 C 6.27 g/m*3 4.4 C 0 km/h
110 28-01-2021 10:05:00 4.5 C 6.31 g/m*3 4.5 C 0 km/h
111 28-01-2021 10:10:00 4.5 C 6.31 g/m*3 4.5 C 0 km/h
112 28-01-2021 10:15:00 4.5 C 6.31 g/m*3 4.5 C 1.6 km/h
113 28-01-2021 10:20:00 4.6 C 6.35 g/m*3 4.6 C 0 km/h
114 28-01-2021 10:25:00 4.6 C 6.35 g/m*3 4.6 C 0 km/h
115 28-01-2021 10:30:00 4.6 C 6.35 g/m*3 4.6 C 3.2 km/h
116 28-01-2021 10:35:00 4.7 C 6.39 g/m*3 4.7 C 3.2 km/h
117 28-01-2021 10:40:00 4.7 C 6.46 g/m*3 4.7 C 3.2 km/h
118 28-01-2021 10:45:00 4.7 C 6.46 g/m*3 4.7 C 3.2 km/h
119 28-01-2021 10:50:00 4.8 C 6.5 g/m*3 4.8 C 0 km/h
120 28-01-2021 10:55:00 4.8 C 6.5 g/m*3 4.8 C 0 km/h
121 28-01-2021 11:00:00 4.8 C 6.5 g/m*3 4.8 C 0 km/h
122 28-01-2021 11:05:00 4.8 C 6.5 g/m*3 4.8 C 1.6 km/h
123 28-01-2021 11:10:00 4.8 C 6.5 g/m*3 4.8 C 0 km/h
124 28-01-2021 11:15:00 4.8 C 6.5 g/m*3 4.8 C 0 km/h
125 28-01-2021 11:20:00 4.8 C 6.5 g/m*3 4.8 C 0 km/h
Sensor: Nr:Datum:Temp:Abs-Feuchte:Windchill:Wind:
Aussen-T/F 126 28-01-2021 11:25:00 4.9 C 6.55 g/m*3 4.9 C 3.2 km/h
127 28-01-2021 11:30:00 5 C 6.59 g/m*3 5 C 4.8 km/h
128 28-01-2021 11:35:00 5.1 C 6.63 g/m*3 5.1 C 3.2 km/h
129 28-01-2021 11:40:00 5.2 C 6.68 g/m*3 5.2 C 3.2 km/h
130 28-01-2021 11:45:00 5.3 C 6.72 g/m*3 5.3 C 1.6 km/h
131 28-01-2021 11:50:00 5.4 C 6.77 g/m*3 5.4 C 0 km/h
132 28-01-2021 11:55:00 5.5 C 6.81 g/m*3 5.5 C 1.6 km/h
133 28-01-2021 12:00:00 5.6 C 6.86 g/m*3 5.6 C 4.8 km/h
134 28-01-2021 12:05:00 5.7 C 6.9 g/m*3 5.7 C 3.2 km/h
135 28-01-2021 12:10:00 5.8 C 6.95 g/m*3 5.8 C 1.6 km/h
136 28-01-2021 12:15:00 6 C 7.04 g/m*3 6 C 4.8 km/h
137 28-01-2021 12:20:00 6.2 C 7.13 g/m*3 4.98 C 6.4 km/h
138 28-01-2021 12:25:00 6.3 C 7.18 g/m*3 5.1 C 6.4 km/h
139 28-01-2021 12:30:00 6.4 C 7.23 g/m*3 4.75 C 8.1 km/h
140 28-01-2021 12:35:00 6.5 C 7.27 g/m*3 3.92 C 12.9 km/h
141 28-01-2021 12:40:00 6.7 C 7.37 g/m*3 3.92 C 14.5 km/h
142 28-01-2021 12:45:00 6.8 C 7.42 g/m*3 4.56 C 11.3 km/h
143 28-01-2021 12:50:00 6.8 C 7.42 g/m*3 4.87 C 9.7 km/h
144 28-01-2021 12:55:00 6.9 C 7.47 g/m*3 5.79 C 6.4 km/h
145 28-01-2021 13:00:00 6.9 C 7.47 g/m*3 5.34 C 8.1 km/h
146 28-01-2021 13:05:00 7.1 C 7.57 g/m*3 5.58 C 8.1 km/h
147 28-01-2021 13:10:00 7.3 C 7.66 g/m*3 5.16 C 11.3 km/h
148 28-01-2021 13:15:00 7.6 C 7.81 g/m*3 6.16 C 8.1 km/h
149 28-01-2021 13:20:00 7.7 C 7.87 g/m*3 5.65 C 11.3 km/h
150 28-01-2021 13:25:00 7.8 C 7.92 g/m*3 4.86 C 17.7 km/h
Sensor: Nr:Datum:Temp:Abs-Feuchte:Windchill:Wind:
Aussen-T/F 151 28-01-2021 13:30:00 7.9 C 7.97 g/m*3 5.39 C 14.5 km/h
152 28-01-2021 13:35:00 8.1 C 8.07 g/m*3 5.64 C 14.5 km/h
153 28-01-2021 13:40:00 8.2 C 8.12 g/m*3 5.76 C 14.5 km/h
154 28-01-2021 13:45:00 8.3 C 8.18 g/m*3 6.37 C 11.3 km/h
155 28-01-2021 13:50:00 8.4 C 8.23 g/m*3 6.49 C 11.3 km/h
156 28-01-2021 13:55:00 8.6 C 8.34 g/m*3 6.05 C 16.1 km/h
157 28-01-2021 14:00:00 8.7 C 8.39 g/m*3 6.38 C 14.5 km/h
158 28-01-2021 14:05:00 8.8 C 8.44 g/m*3 6.11 C 17.7 km/h
159 28-01-2021 14:10:00 8.9 C 8.5 g/m*3 6.62 C 14.5 km/h
160 28-01-2021 14:15:00 9.1 C 8.61 g/m*3 7.33 C 11.3 km/h
161 28-01-2021 14:20:00 9.1 C 8.52 g/m*3 6.87 C 14.5 km/h
162 28-01-2021 14:25:00 9.2 C 8.57 g/m*3 8.05 C 8.1 km/h
163 28-01-2021 14:30:00 9.4 C 8.68 g/m*3 6.86 C 17.7 km/h
164 28-01-2021 14:35:00 9.6 C 8.79 g/m*3 6.12 C 29 km/h
165 28-01-2021 14:40:00 9.7 C 8.85 g/m*3 7.41 C 16.1 km/h
166 28-01-2021 14:45:00 9.8 C 8.91 g/m*3 7.73 C 14.5 km/h
167 28-01-2021 14:50:00 9.9 C 8.87 g/m*3 7.48 C 17.7 km/h
168 28-01-2021 14:55:00 9.9 C 8.87 g/m*3 7.66 C 16.1 km/h
169 28-01-2021 15:00:00 10 C 8.93 g/m*3 6.64 C 29 km/h
170 28-01-2021 15:05:00 10.1 C 8.98 g/m*3 7.91 C 16.1 km/h
171 28-01-2021 15:10:00 10.2 C 9.04 g/m*3 8.43 C 12.9 km/h
172 28-01-2021 15:15:00 10.3 C 9.1 g/m*3 8.34 C 14.5 km/h
173 28-01-2021 15:20:00 10.3 C 9.1 g/m*3 8.34 C 14.5 km/h
174 28-01-2021 15:25:00 10.4 C 9.16 g/m*3 8.11 C 17.7 km/h
175 28-01-2021 15:30:00 10.4 C 9.16 g/m*3 8.9 C 11.3 km/h
Sensor: Nr:Datum:Temp:Abs-Feuchte:Windchill:Wind:
Aussen-T/F 176 28-01-2021 15:35:00 10.4 C 9.16 g/m*3 7.8 C 20.9 km/h
177 28-01-2021 15:40:00 10.4 C 9.16 g/m*3 8.47 C 14.5 km/h
178 28-01-2021 15:45:00 10.4 C 9.16 g/m*3 8.47 C 14.5 km/h
179 28-01-2021 15:50:00 10.4 C 9.16 g/m*3 8.47 C 14.5 km/h
180 28-01-2021 15:55:00 10.5 C 9.31 g/m*3 8.8 C 12.9 km/h
181 28-01-2021 16:00:00 10.6 C 9.37 g/m*3 9.14 C 11.3 km/h

Legende:
   Min
   Max


Maximal/Minimal-Werte vom 28.01.2021 - 28.01.2021

Sensor Min Max Avg
Temp
(Aussen-T/F)
4 °C
28-01-2021  01:00:00
10.6 °C
28-01-2021  16:00:00
5.55 °C
Abs-Feuchte
(Aussen-T/F)
5.98 g/m*3
28-01-2021  01:00:00
9.37 g/m*3
28-01-2021  16:00:00
6.76 g/m*3
Windchill
(Aussen-T/F)
0.47 C
28-01-2021  01:10:00
9.14 C
28-01-2021  16:00:00
4.58 C

Die Daten stammen von einer Davis Vantage Pro 2 Wetter-Station und werden unter Linux mit der Software wview2wettercgi und aufbereitet. Alle Angaben erfolgen ohne Gewähr für ihre Vollständigkeit oder Richtigkeit.
Kontakt: Rainer Krienke krienke@uni-koblenz.de . Meine Webseiten an der Uni Koblenz oder privat.
Version: $Revision: 0.78 $